Terminal Aerodrome Forecast
Issued by NWS Pocatello, ID

Home | Current Version | Previous Version | Text Only | Print | Product List | Glossary On
Versions: 1 2 3 4 5 6 7 8 9 10 11 12 13 14 15 16 17 18 19 20 21
000
FTUS45 KPIH 301700
TAFIDA
TAF
KIDA 301736Z 3018/0118 22013KT P6SM VCSH BKN015 OVC070
     FM302100 21020G30KT P6SM VCSH BKN015 BKN030 BKN060
     FM010000 23022G32KT P6SM FEW025 BKN040 OVC060
     FM010300 21015KT P6SM VCSH SCT030 OVC060
     FM011300 23015G20KT P6SM VCSH SCT020 BKN050=

USA.gov is the U.S. government's official web portal to all federal, state and local government web resources and services.